createdAt,value
2023-07-10T00:01:48.329Z,99.90
2023-07-10T00:04:20.899Z,99.90
2023-07-10T00:06:48.529Z,99.90
2023-07-10T00:09:16.027Z,99.90
2023-07-10T00:11:45.048Z,99.90
2023-07-10T00:14:23.467Z,99.90
2023-07-10T00:16:52.037Z,99.90
2023-07-10T00:19:21.794Z,99.90
2023-07-10T00:21:50.780Z,99.90
2023-07-10T00:24:17.839Z,99.90
2023-07-10T00:26:45.028Z,99.90
2023-07-10T00:29:32.673Z,99.90
2023-07-10T00:32:02.055Z,99.90
2023-07-10T00:34:29.424Z,99.90
2023-07-10T00:36:57.321Z,99.90
2023-07-10T00:39:27.947Z,99.90
2023-07-10T00:42:03.896Z,99.90
2023-07-10T00:44:36.440Z,99.90
2023-07-10T00:47:33.239Z,99.90
2023-07-10T00:50:06.731Z,99.90
2023-07-10T00:52:42.145Z,99.90
2023-07-10T00:55:35.970Z,99.90
2023-07-10T00:58:28.984Z,99.90
2023-07-10T01:01:07.097Z,99.90
2023-07-10T01:03:35.541Z,99.90
2023-07-10T01:06:20.485Z,99.90
2023-07-10T01:09:04.944Z,99.90
2023-07-10T01:11:37.417Z,99.90
2023-07-10T01:14:08.400Z,99.90
2023-07-10T01:16:36.912Z,99.90
2023-07-10T01:19:07.855Z,99.90
2023-07-10T01:21:39.079Z,99.90
2023-07-10T01:24:07.433Z,99.90
2023-07-10T01:26:37.700Z,99.90
2023-07-10T01:29:04.974Z,99.90
2023-07-10T01:31:32.327Z,99.90
2023-07-10T01:34:04.193Z,99.90
2023-07-10T01:36:38.560Z,99.90
2023-07-10T01:39:48.343Z,99.90
2023-07-10T01:42:15.812Z,99.90
2023-07-10T01:44:46.962Z,99.90
2023-07-10T01:47:15.758Z,99.90
2023-07-10T01:49:56.495Z,99.90
2023-07-10T01:52:25.195Z,99.90
2023-07-10T01:54:55.596Z,99.90
2023-07-10T01:57:25.198Z,99.90
2023-07-10T01:59:53.738Z,99.90
2023-07-10T02:02:21.129Z,99.90
2023-07-10T02:04:48.318Z,99.90
2023-07-10T02:07:15.416Z,99.90
2023-07-10T02:09:42.536Z,99.90
2023-07-10T02:12:10.311Z,99.90
2023-07-10T02:14:37.379Z,99.90
2023-07-10T02:17:04.831Z,99.90
2023-07-10T02:19:33.265Z,99.90
2023-07-10T02:22:00.379Z,99.90
2023-07-10T02:24:27.500Z,99.90
2023-07-10T02:26:54.813Z,99.90
2023-07-10T02:29:21.894Z,99.90
2023-07-10T02:31:52.163Z,99.90
2023-07-10T02:34:19.711Z,99.90
2023-07-10T02:36:46.797Z,99.90
2023-07-10T02:39:15.753Z,99.90
2023-07-10T02:41:42.894Z,99.90
2023-07-10T02:44:10.005Z,99.90
2023-07-10T02:46:37.219Z,99.90
2023-07-10T02:49:04.434Z,99.90
2023-07-10T02:51:31.560Z,99.90
2023-07-10T02:53:58.740Z,99.90
2023-07-10T02:56:25.853Z,99.90
2023-07-10T02:58:53.031Z,99.90
2023-07-10T03:01:23.815Z,99.90
2023-07-10T03:03:52.449Z,99.90
2023-07-10T03:06:20.820Z,99.90
2023-07-10T03:08:49.176Z,99.90
2023-07-10T03:11:17.642Z,99.90
2023-07-10T03:13:44.965Z,99.90
2023-07-10T03:16:14.694Z,99.90
2023-07-10T03:18:41.980Z,99.90
2023-07-10T03:21:10.009Z,99.90
2023-07-10T03:23:37.676Z,99.90
2023-07-10T03:26:05.341Z,99.90
2023-07-10T03:28:37.140Z,99.90
2023-07-10T03:31:04.383Z,99.90
2023-07-10T03:33:31.516Z,99.90
2023-07-10T03:36:00.840Z,99.90
2023-07-10T03:38:28.436Z,99.90
2023-07-10T03:40:57.713Z,99.90
2023-07-10T03:43:25.891Z,99.90
2023-07-10T03:45:53.794Z,99.90
2023-07-10T03:48:21.155Z,99.90
2023-07-10T03:50:48.256Z,99.90
2023-07-10T03:53:15.387Z,99.90
2023-07-10T03:55:53.860Z,99.90
2023-07-10T03:58:42.541Z,99.90
2023-07-10T04:01:10.152Z,99.90
2023-07-10T04:03:39.123Z,99.90
2023-07-10T04:06:08.478Z,99.90
2023-07-10T04:08:37.937Z,99.90
2023-07-10T04:11:07.967Z,99.90
2023-07-10T04:13:35.423Z,99.90
2023-07-10T04:16:14.485Z,99.90
2023-07-10T04:18:43.211Z,99.90
2023-07-10T04:21:13.172Z,99.90
2023-07-10T04:23:40.493Z,99.90
2023-07-10T04:26:11.494Z,99.90
2023-07-10T04:28:38.616Z,99.90
2023-07-10T04:31:05.838Z,99.90
2023-07-10T04:33:35.491Z,99.90
2023-07-10T04:36:03.088Z,99.90
2023-07-10T04:38:30.789Z,99.90
2023-07-10T04:41:03.877Z,99.90
2023-07-10T04:43:32.855Z,99.90
2023-07-10T04:46:02.745Z,99.90
2023-07-10T04:48:30.935Z,99.90
2023-07-10T04:51:04.166Z,99.90
2023-07-10T04:53:32.756Z,99.90
2023-07-10T04:56:02.528Z,99.90
2023-07-10T04:58:30.713Z,99.90
2023-07-10T05:00:59.987Z,99.90
2023-07-10T05:03:27.529Z,99.90
2023-07-10T05:06:00.610Z,99.90
2023-07-10T05:08:30.209Z,99.90
2023-07-10T05:10:57.799Z,99.90
2023-07-10T05:13:27.438Z,99.90
2023-07-10T05:15:57.420Z,99.90
2023-07-10T05:18:26.949Z,99.90
2023-07-10T05:20:55.074Z,99.90
2023-07-10T05:23:22.748Z,99.90
2023-07-10T05:26:03.319Z,99.90
2023-07-10T05:28:31.207Z,99.90
2023-07-10T05:31:03.445Z,99.90
2023-07-10T05:33:31.908Z,99.90
2023-07-10T05:36:01.506Z,99.90
2023-07-10T05:38:31.541Z,99.90
2023-07-10T05:40:58.789Z,99.90
2023-07-10T05:43:26.024Z,99.90
2023-07-10T05:45:55.079Z,99.90
2023-07-10T05:48:22.682Z,99.90
2023-07-10T05:50:51.557Z,99.90
2023-07-10T05:53:19.423Z,99.90
2023-07-10T05:55:57.719Z,99.90
2023-07-10T05:58:27.458Z,99.90
2023-07-10T06:00:57.463Z,99.90
2023-07-10T06:03:25.118Z,99.90
2023-07-10T06:06:00.582Z,99.90
2023-07-10T06:08:29.105Z,99.90
2023-07-10T06:10:56.671Z,99.90
2023-07-10T06:13:24.146Z,99.90
2023-07-10T06:15:54.811Z,99.90
2023-07-10T06:18:23.098Z,99.90
2023-07-10T06:21:00.898Z,99.90
2023-07-10T06:23:29.929Z,99.90
2023-07-10T06:25:57.594Z,99.90
2023-07-10T06:28:24.779Z,99.90
2023-07-10T06:30:58.912Z,99.90
2023-07-10T06:33:26.955Z,99.90
2023-07-10T06:35:54.086Z,99.90
2023-07-10T06:38:21.826Z,99.90
2023-07-10T06:40:50.275Z,99.90
2023-07-10T06:43:21.434Z,99.90
2023-07-10T06:45:49.183Z,99.90
2023-07-10T06:48:16.888Z,99.90
2023-07-10T06:50:51.487Z,99.90
2023-07-10T06:53:25.445Z,99.90
2023-07-10T06:55:57.032Z,99.90
2023-07-10T06:58:24.332Z,99.90
2023-07-10T07:00:51.838Z,99.90
2023-07-10T07:03:19.186Z,99.90
2023-07-10T07:05:46.398Z,99.90
2023-07-10T07:08:14.336Z,99.90
2023-07-10T07:10:42.761Z,99.90
2023-07-10T07:13:10.910Z,99.90
2023-07-10T07:15:38.086Z,99.90
2023-07-10T07:18:06.105Z,99.90
2023-07-10T07:20:33.866Z,99.90
2023-07-10T07:23:01.494Z,99.90
2023-07-10T07:25:31.592Z,99.90
2023-07-10T07:28:04.743Z,99.90
2023-07-10T07:30:32.801Z,99.90
2023-07-10T07:33:00.593Z,99.90
2023-07-10T07:35:28.168Z,99.90
2023-07-10T07:37:55.245Z,99.90
2023-07-10T07:40:22.430Z,99.90
2023-07-10T07:42:49.538Z,99.90
2023-07-10T07:45:17.251Z,99.90
2023-07-10T07:47:45.396Z,99.90
2023-07-10T07:50:13.046Z,99.90
2023-07-10T07:52:40.141Z,99.90
2023-07-10T07:55:07.961Z,99.90
2023-07-10T07:57:35.078Z,99.90
2023-07-10T08:00:02.481Z,99.40
2023-07-10T08:02:39.395Z,99.90
2023-07-10T08:05:16.550Z,99.90
2023-07-10T08:07:51.583Z,99.90
2023-07-10T08:10:18.736Z,99.90
2023-07-10T08:12:46.048Z,99.40
2023-07-10T08:15:13.265Z,97.10
2023-07-10T08:17:40.398Z,96.50
2023-07-10T08:20:09.151Z,98.30
2023-07-10T08:22:36.289Z,97.70
2023-07-10T08:25:04.420Z,97.00
2023-07-10T08:27:31.581Z,98.40
2023-07-10T08:29:58.778Z,98.00
2023-07-10T08:32:26.970Z,96.90
2023-07-10T08:34:54.100Z,97.60
2023-07-10T08:37:21.244Z,98.90
2023-07-10T08:39:50.279Z,98.20
2023-07-10T08:42:23.568Z,99.90
2023-07-10T08:44:52.894Z,99.60
2023-07-10T08:47:24.285Z,98.60
2023-07-10T08:50:04.838Z,97.00
2023-07-10T08:52:47.217Z,97.60
2023-07-10T08:55:18.302Z,99.30
2023-07-10T08:57:55.025Z,99.50
2023-07-10T09:00:22.640Z,99.00
2023-07-10T09:03:31.178Z,97.90
2023-07-10T09:05:59.214Z,96.50
2023-07-10T09:08:29.009Z,99.70
2023-07-10T09:11:02.612Z,97.60
2023-07-10T09:14:09.168Z,97.20
2023-07-10T09:16:36.442Z,96.30
2023-07-10T09:19:17.648Z,97.60
2023-07-10T09:21:44.988Z,98.00
2023-07-10T09:24:23.049Z,97.20
2023-07-10T09:26:51.001Z,96.50
2023-07-10T09:29:28.857Z,93.20
2023-07-10T09:32:22.709Z,93.20
2023-07-10T09:35:00.171Z,95.10
2023-07-10T09:37:36.970Z,97.20
2023-07-10T09:40:48.512Z,94.80
2023-07-10T09:43:21.688Z,94.90
2023-07-10T09:45:51.228Z,96.80
2023-07-10T09:48:48.799Z,96.70
2023-07-10T09:51:16.053Z,96.80
2023-07-10T09:53:47.881Z,96.00
2023-07-10T09:56:39.623Z,95.60
2023-07-10T09:59:35.641Z,93.70
2023-07-10T10:02:28.157Z,91.00
2023-07-10T10:05:18.711Z,91.60
2023-07-10T10:07:50.929Z,90.30
2023-07-10T10:10:30.030Z,90.10
2023-07-10T10:13:21.719Z,91.00
2023-07-10T10:16:10.183Z,89.30
2023-07-10T10:19:16.013Z,90.20
2023-07-10T10:21:43.170Z,84.50
2023-07-10T10:24:14.210Z,82.60
2023-07-10T10:27:20.620Z,80.00
2023-07-10T10:30:04.296Z,84.00
2023-07-10T10:32:51.151Z,84.70
2023-07-10T10:35:51.564Z,79.90
2023-07-10T10:38:57.628Z,83.20
2023-07-10T10:41:54.929Z,86.50
2023-07-10T10:44:52.477Z,81.60
2023-07-10T10:48:17.824Z,84.70
2023-07-10T10:51:43.132Z,77.30
2023-07-10T10:54:40.846Z,76.00
2023-07-10T10:57:40.582Z,83.90
2023-07-10T11:00:34.345Z,83.30
2023-07-10T11:03:37.035Z,78.20
2023-07-10T11:06:45.313Z,71.40
2023-07-10T11:09:18.136Z,72.90
2023-07-10T11:11:45.587Z,66.80
2023-07-10T11:14:13.702Z,77.50
2023-07-10T11:16:41.708Z,79.70
2023-07-10T11:19:16.835Z,79.60
2023-07-10T11:21:44.062Z,74.30
2023-07-10T11:24:33.349Z,70.80
2023-07-10T11:27:10.036Z,66.60
2023-07-10T11:29:43.281Z,72.60
2023-07-10T11:32:21.287Z,62.50
2023-07-10T11:35:21.234Z,64.60
2023-07-10T11:38:15.207Z,59.40
2023-07-10T11:40:44.218Z,59.10
2023-07-10T11:43:53.188Z,63.00
2023-07-10T11:46:27.207Z,73.60
2023-07-10T11:49:11.346Z,73.70
2023-07-10T11:51:40.495Z,73.20
2023-07-10T11:54:53.756Z,72.00
2023-07-10T11:57:33.582Z,73.60
2023-07-10T12:00:05.272Z,64.40
2023-07-10T12:02:48.914Z,74.10
2023-07-10T12:05:39.516Z,72.00
2023-07-10T12:08:13.352Z,68.70
2023-07-10T12:10:47.590Z,68.60
2023-07-10T12:13:19.760Z,64.10
2023-07-10T12:15:48.662Z,58.80
2023-07-10T12:18:46.419Z,62.90
2023-07-10T12:21:21.884Z,56.10
2023-07-10T12:23:54.018Z,55.90
2023-07-10T12:26:52.331Z,54.40
2023-07-10T12:29:14.439Z,57.50
2023-07-10T12:31:43.065Z,50.20
2023-07-10T12:34:26.983Z,52.30
2023-07-10T12:36:56.686Z,49.60
2023-07-10T12:39:24.676Z,53.20
2023-07-10T12:41:54.275Z,49.30
2023-07-10T12:44:29.886Z,51.20
2023-07-10T12:47:10.905Z,46.70
2023-07-10T12:49:38.143Z,42.80
2023-07-10T12:52:07.489Z,44.40
2023-07-10T12:54:42.239Z,42.90
2023-07-10T12:57:20.746Z,42.80
2023-07-10T12:59:50.037Z,45.00
2023-07-10T13:02:23.370Z,40.70
2023-07-10T13:04:56.358Z,45.50
2023-07-10T13:07:31.601Z,43.60
2023-07-10T13:10:03.015Z,38.90
2023-07-10T13:12:50.515Z,38.60
2023-07-10T13:15:19.148Z,38.10
2023-07-10T13:17:56.414Z,39.20
2023-07-10T13:20:28.762Z,40.70
2023-07-10T13:23:00.721Z,46.40
2023-07-10T13:25:32.151Z,43.30
2023-07-10T13:27:59.384Z,46.10
2023-07-10T13:30:26.647Z,40.00
2023-07-10T13:32:53.895Z,40.70
2023-07-10T13:35:21.056Z,36.30
2023-07-10T13:37:48.230Z,36.90
2023-07-10T13:40:22.730Z,42.40
2023-07-10T13:42:50.759Z,39.40
2023-07-10T13:45:17.888Z,40.50
2023-07-10T13:47:45.230Z,41.10
2023-07-10T13:50:19.492Z,39.00
2023-07-10T13:52:46.826Z,33.00
2023-07-10T13:55:14.710Z,34.00
2023-07-10T13:57:41.982Z,33.50
2023-07-10T14:00:14.833Z,33.10
2023-07-10T14:02:44.541Z,34.60
2023-07-10T14:05:13.989Z,34.50
2023-07-10T14:07:42.482Z,34.10
2023-07-10T14:10:15.604Z,32.80
2023-07-10T14:12:42.796Z,35.30
2023-07-10T14:15:18.509Z,33.30
2023-07-10T14:17:46.385Z,36.00
2023-07-10T14:20:21.582Z,37.80
2023-07-10T14:22:48.742Z,40.00
2023-07-10T14:25:18.924Z,40.70
2023-07-10T14:27:46.420Z,39.60
2023-07-10T14:30:19.548Z,38.00
2023-07-10T14:32:46.838Z,40.60
2023-07-10T14:35:21.869Z,41.00
2023-07-10T14:37:50.503Z,43.30
2023-07-10T14:40:18.760Z,47.20
2023-07-10T14:42:46.183Z,40.80
2023-07-10T14:45:17.814Z,44.60
2023-07-10T14:47:46.593Z,42.20
2023-07-10T14:50:14.249Z,45.30
2023-07-10T14:52:43.982Z,47.60
2023-07-10T14:55:16.522Z,48.20
2023-07-10T14:57:43.817Z,44.80
2023-07-10T15:00:28.959Z,42.90
2023-07-10T15:02:56.323Z,40.90
2023-07-10T15:05:24.868Z,43.40
2023-07-10T15:07:56.933Z,43.80
2023-07-10T15:10:27.781Z,46.40
2023-07-10T15:13:03.072Z,38.90
2023-07-10T15:15:34.740Z,40.30
2023-07-10T15:18:02.634Z,41.20
2023-07-10T15:20:29.747Z,41.40
2023-07-10T15:22:56.940Z,41.20
2023-07-10T15:25:26.349Z,44.30
2023-07-10T15:27:54.400Z,48.30
2023-07-10T15:30:24.856Z,45.00
2023-07-10T15:32:52.616Z,40.70
2023-07-10T15:35:21.989Z,44.30
2023-07-10T15:37:49.158Z,45.30
2023-07-10T15:40:18.322Z,42.40
2023-07-10T15:42:48.043Z,40.90
2023-07-10T15:45:17.011Z,41.30
2023-07-10T15:47:47.179Z,45.70
2023-07-10T15:50:15.790Z,46.10
2023-07-10T15:52:46.513Z,47.20
2023-07-10T15:55:40.497Z,47.70
2023-07-10T15:58:13.967Z,48.30
2023-07-10T16:00:44.722Z,48.50
2023-07-10T16:03:32.743Z,46.60
2023-07-10T16:06:05.262Z,44.40
2023-07-10T16:08:39.302Z,41.10
2023-07-10T16:11:18.035Z,42.50
2023-07-10T16:13:47.905Z,41.90
2023-07-10T16:16:15.183Z,44.70
2023-07-10T16:18:43.074Z,44.90
2023-07-10T16:21:22.238Z,49.10
2023-07-10T16:23:50.173Z,43.40
2023-07-10T16:26:18.940Z,44.20
2023-07-10T16:28:46.663Z,44.60
2023-07-10T16:31:18.773Z,46.80
2023-07-10T16:33:46.207Z,45.80
2023-07-10T16:36:15.870Z,45.00
2023-07-10T16:38:43.042Z,48.10
2023-07-10T16:41:17.116Z,48.10
2023-07-10T16:43:44.989Z,48.90
2023-07-10T16:46:13.564Z,47.20
2023-07-10T16:48:41.828Z,48.90
2023-07-10T16:51:26.865Z,48.10
2023-07-10T16:53:58.218Z,48.10
2023-07-10T16:56:25.921Z,47.80
2023-07-10T16:58:53.549Z,49.20
2023-07-10T17:01:29.170Z,49.70
2023-07-10T17:03:58.284Z,46.50
2023-07-10T17:06:28.719Z,46.30
2023-07-10T17:08:56.134Z,46.70
2023-07-10T17:11:35.733Z,44.30
2023-07-10T17:14:03.101Z,47.80
2023-07-10T17:16:30.657Z,48.30
2023-07-10T17:18:57.845Z,48.10
2023-07-10T17:21:25.401Z,46.20
2023-07-10T17:23:53.054Z,47.50
2023-07-10T17:26:21.920Z,49.90
2023-07-10T17:28:49.592Z,45.90
2023-07-10T17:31:28.183Z,46.10
2023-07-10T17:33:57.304Z,49.60
2023-07-10T17:36:25.620Z,49.40
2023-07-10T17:38:53.221Z,48.50
2023-07-10T17:41:26.490Z,49.50
2023-07-10T17:43:59.314Z,50.30
2023-07-10T17:46:26.489Z,49.80
2023-07-10T17:48:53.569Z,51.60
2023-07-10T17:51:34.739Z,52.10
2023-07-10T17:54:02.332Z,51.50
2023-07-10T17:56:29.586Z,51.30
2023-07-10T17:58:56.833Z,52.80
2023-07-10T18:01:29.701Z,51.50
2023-07-10T18:03:57.756Z,52.10
2023-07-10T18:06:25.917Z,54.10
2023-07-10T18:08:53.147Z,55.80
2023-07-10T18:11:46.593Z,53.70
2023-07-10T18:14:15.337Z,54.10
2023-07-10T18:16:43.083Z,54.90
2023-07-10T18:19:19.786Z,54.20
2023-07-10T18:21:51.948Z,53.30
2023-07-10T18:24:21.884Z,53.90
2023-07-10T18:26:48.999Z,54.80
2023-07-10T18:29:16.708Z,55.50
2023-07-10T18:31:44.724Z,55.60
2023-07-10T18:34:17.287Z,55.10
2023-07-10T18:36:44.585Z,55.90
2023-07-10T18:39:12.751Z,57.00
2023-07-10T18:41:41.619Z,57.70
2023-07-10T18:44:14.701Z,59.00
2023-07-10T18:46:42.009Z,59.60
2023-07-10T18:49:19.712Z,59.40
2023-07-10T18:51:48.009Z,59.80
2023-07-10T18:54:18.680Z,58.00
2023-07-10T18:56:45.812Z,61.00
2023-07-10T18:59:24.759Z,60.00
2023-07-10T19:01:54.722Z,59.90
2023-07-10T19:04:27.919Z,59.50
2023-07-10T19:06:56.029Z,61.30
2023-07-10T19:09:30.019Z,59.70
2023-07-10T19:11:57.838Z,60.40
2023-07-10T19:14:27.005Z,60.30
2023-07-10T19:16:57.068Z,61.50
2023-07-10T19:19:31.107Z,61.80
2023-07-10T19:21:58.833Z,60.70
2023-07-10T19:24:28.535Z,62.80
2023-07-10T19:26:55.762Z,63.50
2023-07-10T19:29:22.895Z,64.00
2023-07-10T19:31:57.534Z,63.50
2023-07-10T19:34:25.341Z,62.80
2023-07-10T19:36:52.842Z,63.70
2023-07-10T19:39:23.639Z,65.40
2023-07-10T19:41:51.140Z,65.80
2023-07-10T19:44:20.866Z,66.60
2023-07-10T19:46:48.858Z,68.10
2023-07-10T19:49:18.490Z,69.00
2023-07-10T19:51:45.683Z,70.00
2023-07-10T19:54:17.644Z,71.00
2023-07-10T19:56:46.025Z,71.00
2023-07-10T19:59:15.818Z,71.20
2023-07-10T20:01:43.552Z,72.90
2023-07-10T20:04:11.798Z,73.20
2023-07-10T20:06:42.189Z,73.80
2023-07-10T20:09:22.105Z,74.50
2023-07-10T20:11:49.558Z,75.60
2023-07-10T20:14:17.937Z,76.20
2023-07-10T20:16:50.516Z,76.30
2023-07-10T20:19:23.473Z,77.40
2023-07-10T20:21:53.167Z,77.90
2023-07-10T20:24:21.329Z,78.20
2023-07-10T20:26:49.287Z,78.10
2023-07-10T20:29:19.281Z,79.50
2023-07-10T20:31:47.167Z,79.70
2023-07-10T20:34:15.203Z,81.70
2023-07-10T20:36:44.562Z,84.80
2023-07-10T20:39:19.955Z,87.00
2023-07-10T20:41:50.010Z,89.10
2023-07-10T20:44:19.128Z,90.20
2023-07-10T20:46:49.357Z,90.30
2023-07-10T20:49:22.533Z,90.40
2023-07-10T20:51:50.378Z,90.80
2023-07-10T20:54:19.891Z,91.30
2023-07-10T20:56:54.188Z,90.30
2023-07-10T20:59:28.192Z,91.30
2023-07-10T21:01:56.549Z,92.00
2023-07-10T21:04:23.893Z,93.20
2023-07-10T21:07:11.921Z,93.90
2023-07-10T21:09:53.310Z,94.00
2023-07-10T21:12:21.203Z,93.90
2023-07-10T21:14:48.955Z,94.70
2023-07-10T21:17:21.247Z,94.70
2023-07-10T21:19:48.528Z,94.70
2023-07-10T21:22:17.375Z,95.90
2023-07-10T21:24:47.256Z,96.60
2023-07-10T21:27:26.777Z,97.40
2023-07-10T21:29:55.332Z,95.80
2023-07-10T21:32:27.325Z,96.20
2023-07-10T21:34:55.714Z,96.20
2023-07-10T21:37:23.244Z,96.70
2023-07-10T21:39:50.493Z,97.10
2023-07-10T21:42:27.378Z,97.50
2023-07-10T21:44:57.439Z,98.70
2023-07-10T21:47:24.632Z,99.40
2023-07-10T21:49:52.026Z,99.80
2023-07-10T21:52:19.144Z,99.90
2023-07-10T21:54:46.241Z,99.90
2023-07-10T21:57:24.298Z,99.90
2023-07-10T21:59:51.598Z,99.90
2023-07-10T22:02:18.791Z,99.90
2023-07-10T22:04:45.984Z,99.90
2023-07-10T22:07:13.056Z,99.90
2023-07-10T22:09:40.157Z,99.90
2023-07-10T22:12:15.297Z,99.90
2023-07-10T22:14:42.687Z,99.90
2023-07-10T22:17:22.000Z,99.90
2023-07-10T22:19:54.092Z,99.90
2023-07-10T22:22:21.548Z,99.90
2023-07-10T22:24:49.714Z,99.90
2023-07-10T22:27:16.881Z,99.90
2023-07-10T22:29:43.976Z,99.90
2023-07-10T22:32:11.620Z,99.90
2023-07-10T22:34:38.682Z,99.90
2023-07-10T22:37:06.144Z,99.90
2023-07-10T22:39:33.231Z,99.90
2023-07-10T22:42:00.333Z,99.90
2023-07-10T22:44:27.773Z,99.90
2023-07-10T22:46:54.949Z,99.90
2023-07-10T22:49:26.292Z,99.90
2023-07-10T22:51:53.429Z,99.90
2023-07-10T22:54:20.565Z,99.90
2023-07-10T22:56:47.859Z,99.90
2023-07-10T22:59:19.137Z,99.90
2023-07-10T23:01:48.888Z,99.90
2023-07-10T23:04:18.403Z,99.90
2023-07-10T23:06:45.581Z,99.90
2023-07-10T23:09:12.923Z,99.90
2023-07-10T23:11:40.025Z,99.90
2023-07-10T23:14:08.172Z,99.90
2023-07-10T23:16:35.995Z,99.90
2023-07-10T23:19:03.352Z,99.90
2023-07-10T23:21:30.845Z,99.90
2023-07-10T23:24:00.743Z,99.90
2023-07-10T23:26:28.232Z,99.90
2023-07-10T23:28:55.299Z,99.90
2023-07-10T23:31:27.430Z,99.90
2023-07-10T23:33:55.298Z,99.90
2023-07-10T23:36:24.663Z,99.90
2023-07-10T23:38:52.886Z,99.90
2023-07-10T23:41:20.372Z,99.90
2023-07-10T23:43:47.895Z,99.90
2023-07-10T23:46:15.249Z,99.90
2023-07-10T23:48:43.141Z,99.90
2023-07-10T23:51:10.252Z,99.90
2023-07-10T23:53:37.475Z,99.90
2023-07-10T23:56:05.139Z,99.90
2023-07-10T23:58:32.503Z,99.90
